Terminal Aerodrome Forecast
Issued by NWS Shreveport, LA

Home | Current Version | Previous Version | Text Only | Print | Product List | Glossary On
Versions: 1 2 3 4 5 6 7 8 9 10 11 12 13 14
883
FTUS44 KSHV 230520
TAFTYR
TAF
KTYR 230520Z 2306/2406 14004KT P6SM SKC
     FM231300 33003KT P6SM FEW035 FEW200
     FM231500 03005KT P6SM VCTS BKN050CB BKN180 BKN250
     FM240300 06007KT P6SM BKN050 BKN250=

USA.gov is the U.S. government's official web portal to all federal, state and local government web resources and services.